Portada
METAR-TAF:

METAR-TAF

Aeropuertos :

Base aérea

Tafraoui, Argelia

latitud: 35-32-33N, longitud: 000-31-56W, altitud: 112 m

Observación

El informe se hizo hace 1 hora y 29 minutos, a las 07:00 UTC
Viento 4 kt del sur-suroeste
Temperatura 26°C
Humedad 70%
Presión 1015 hPa
Visibilidad: 8000 m
Nubes dispersas a una altura de 2600 ft

METAR: DAOL 140700Z 21004KT 8000 SCT026 26/20 Q1015

Hora: 09:29 (08:29 UTC)


TAF: falta

Observaciones y pronósticos meteorológicos de más de 4000 aeropuertos (mensajes METAR y TAF).

Los puntos amarillos y rojos representan las estaciones disponibles.

Ponga el ratón en el punto deseado para ver el nombre de la estación.

Haga clic para ver las observaciones y los pronósticos meteorológicos.

Para cambiar el mapa : haga clic en los botones verdes con una cruz de color negro para hacer un zoom, en el botón verde con un guión para alejar o en las flechas verdes para mapas adyacentes.


METAR-TAF: